createdAt,value
2018-12-17T00:01:19.025Z,12.10
2018-12-17T00:03:50.869Z,11.83
2018-12-17T00:06:22.501Z,11.83
2018-12-17T00:08:54.368Z,12.43
2018-12-17T00:11:25.892Z,11.40
2018-12-17T00:13:57.563Z,10.50
2018-12-17T00:16:31.320Z,11.50
2018-12-17T00:19:06.203Z,11.53
2018-12-17T00:21:39.545Z,12.07
2018-12-17T00:24:14.393Z,11.43
2018-12-17T00:26:44.197Z,11.73
2018-12-17T00:29:16.401Z,11.43
2018-12-17T00:31:47.582Z,11.47
2018-12-17T00:34:19.051Z,11.40
2018-12-17T00:36:50.555Z,11.97
2018-12-17T00:39:25.213Z,11.80
2018-12-17T00:41:56.121Z,11.83
2018-12-17T00:44:30.463Z,11.10
2018-12-17T00:47:01.472Z,12.57
2018-12-17T00:49:33.459Z,11.77
2018-12-17T00:52:07.225Z,10.93
2018-12-17T00:54:43.081Z,11.03
2018-12-17T00:57:14.016Z,11.43
2018-12-17T00:59:48.197Z,10.40
2018-12-17T01:02:19.149Z,11.63
2018-12-17T01:05:06.148Z,11.90
2018-12-17T01:07:44.772Z,11.00
2018-12-17T01:10:17.221Z,12.20
2018-12-17T01:12:51.329Z,10.63
2018-12-17T01:15:24.457Z,11.00
2018-12-17T01:17:55.818Z,10.97
2018-12-17T01:20:30.997Z,11.43
2018-12-17T01:23:03.163Z,11.23
2018-12-17T01:25:35.249Z,11.47
2018-12-17T01:28:06.576Z,10.80
2018-12-17T01:30:38.543Z,10.90
2018-12-17T01:33:10.343Z,10.07
2018-12-17T01:35:46.048Z,9.57
2018-12-17T01:38:17.705Z,9.93
2018-12-17T01:40:49.412Z,8.43
2018-12-17T01:43:23.619Z,8.37
2018-12-17T01:45:55.751Z,8.37
2018-12-17T01:48:27.191Z,8.03
2018-12-17T01:50:58.916Z,7.47
2018-12-17T01:53:30.652Z,7.03
2018-12-17T01:56:03.203Z,7.00
2018-12-17T01:58:34.035Z,6.50
2018-12-17T02:01:09.269Z,6.63
2018-12-17T02:03:40.337Z,6.37
2018-12-17T02:06:16.803Z,5.93
2018-12-17T02:08:47.885Z,6.33
2018-12-17T02:11:19.622Z,6.20
2018-12-17T02:13:51.251Z,5.70
2018-12-17T02:16:26.407Z,6.27
2018-12-17T02:18:59.629Z,5.70
2018-12-17T02:21:32.435Z,5.57
2018-12-17T02:24:03.544Z,5.80
2018-12-17T02:26:37.289Z,5.57
2018-12-17T02:29:08.501Z,5.50
2018-12-17T02:31:40.215Z,5.87
2018-12-17T02:34:13.291Z,5.53
2018-12-17T02:36:47.155Z,4.87
2018-12-17T02:39:20.452Z,5.73
2018-12-17T02:41:52.232Z,5.10
2018-12-17T02:44:23.918Z,5.53
2018-12-17T02:46:55.492Z,4.93
2018-12-17T02:49:29.514Z,5.30
2018-12-17T02:52:03.560Z,4.57
2018-12-17T02:54:34.844Z,5.63
2018-12-17T02:57:07.598Z,5.17
2018-12-17T02:59:39.079Z,5.80
2018-12-17T03:02:13.619Z,5.63
2018-12-17T03:04:45.686Z,5.47
2018-12-17T03:07:17.228Z,5.47
2018-12-17T03:09:51.306Z,5.80
2018-12-17T03:12:23.608Z,5.20
2018-12-17T03:14:54.760Z,5.23
2018-12-17T03:17:26.260Z,5.30
2018-12-17T03:20:00.297Z,5.27
2018-12-17T03:22:31.616Z,5.10
2018-12-17T03:25:03.647Z,5.60
2018-12-17T03:27:36.194Z,5.00
2018-12-17T03:30:07.660Z,5.60
2018-12-17T03:32:42.473Z,5.23
2018-12-17T03:35:16.969Z,5.87
2018-12-17T03:37:48.934Z,5.50
2018-12-17T03:40:20.238Z,5.93
2018-12-17T03:42:52.981Z,5.37
2018-12-17T03:45:23.914Z,6.10
2018-12-17T03:47:55.935Z,6.03
2018-12-17T03:50:27.577Z,5.87
2018-12-17T03:52:59.412Z,6.13
2018-12-17T03:55:30.434Z,5.57
2018-12-17T03:58:02.898Z,5.73
2018-12-17T04:00:34.232Z,5.90
2018-12-17T04:03:05.913Z,6.07
2018-12-17T04:05:38.383Z,6.03
2018-12-17T04:08:11.559Z,6.20
2018-12-17T04:10:42.815Z,6.00
2018-12-17T04:13:14.293Z,5.97
2018-12-17T04:15:48.325Z,5.70
2018-12-17T04:18:20.621Z,5.93
2018-12-17T04:20:52.120Z,6.10
2018-12-17T04:23:23.687Z,6.03
2018-12-17T04:25:58.856Z,5.73
2018-12-17T04:28:33.459Z,6.60
2018-12-17T04:31:04.928Z,5.70
2018-12-17T04:33:39.407Z,6.07
2018-12-17T04:36:12.650Z,6.00
2018-12-17T04:38:47.099Z,6.30
2018-12-17T04:41:19.029Z,6.50
2018-12-17T04:43:53.764Z,6.27
2018-12-17T04:46:26.809Z,6.93
2018-12-17T04:48:58.376Z,6.73
2018-12-17T04:51:30.063Z,7.50
2018-12-17T04:54:05.075Z,7.20
2018-12-17T04:56:35.978Z,6.97
2018-12-17T04:59:14.638Z,8.73
2018-12-17T05:01:40.030Z,7.50
2018-12-17T05:04:14.439Z,7.33
2018-12-17T05:06:45.803Z,7.77
2018-12-17T05:09:19.648Z,8.40
2018-12-17T05:11:50.703Z,8.33
2018-12-17T05:14:22.638Z,8.20
2018-12-17T05:16:56.514Z,8.00
2018-12-17T05:19:28.717Z,8.60
2018-12-17T05:22:00.736Z,7.83
2018-12-17T05:24:36.506Z,8.77
2018-12-17T05:27:08.122Z,8.97
2018-12-17T05:29:42.204Z,9.10
2018-12-17T05:32:13.271Z,8.13
2018-12-17T05:34:45.698Z,8.63
2018-12-17T05:37:17.354Z,9.40
2018-12-17T05:39:51.226Z,9.13
2018-12-17T05:42:22.571Z,9.10
2018-12-17T05:44:54.381Z,8.87
2018-12-17T05:47:25.778Z,9.63
2018-12-17T05:49:55.979Z,9.07
2018-12-17T05:52:27.714Z,8.23
2018-12-17T05:55:01.460Z,8.80
2018-12-17T05:57:32.692Z,7.83
2018-12-17T06:02:51.545Z,7.30
2018-12-17T06:05:27.496Z,6.80
2018-12-17T06:07:58.475Z,7.20
2018-12-17T06:10:31.400Z,7.33
2018-12-17T06:13:05.131Z,7.10
2018-12-17T06:15:38.079Z,6.43
2018-12-17T06:18:09.645Z,6.17
2018-12-17T06:20:42.202Z,6.93
2018-12-17T06:25:51.654Z,6.83
2018-12-17T06:28:23.003Z,6.67
2018-12-17T06:30:55.311Z,6.17
2018-12-17T06:33:26.786Z,6.07
2018-12-17T06:35:59.016Z,6.73
2018-12-17T06:38:30.577Z,6.50
2018-12-17T06:41:04.570Z,5.93
2018-12-17T06:43:35.770Z,5.97
2018-12-17T06:48:47.536Z,6.17
2018-12-17T06:51:21.712Z,5.97
2018-12-17T06:53:52.887Z,5.93
2018-12-17T06:59:02.001Z,5.40
2018-12-17T07:01:35.535Z,5.27
2018-12-17T07:04:09.483Z,5.20
2018-12-17T07:06:41.875Z,4.77
2018-12-17T07:09:12.946Z,4.77
2018-12-17T07:11:47.791Z,4.53
2018-12-17T07:14:18.705Z,5.03
2018-12-17T07:16:52.782Z,4.80
2018-12-17T07:19:28.243Z,4.43
2018-12-17T07:22:01.106Z,5.00
2018-12-17T07:24:32.697Z,4.80
2018-12-17T07:27:04.983Z,4.70
2018-12-17T07:29:36.467Z,4.60
2018-12-17T07:32:09.357Z,5.13
2018-12-17T07:34:44.122Z,4.33
2018-12-17T07:37:16.405Z,4.53
2018-12-17T07:39:48.362Z,4.70
2018-12-17T07:42:19.758Z,4.67
2018-12-17T07:44:51.578Z,4.40
2018-12-17T07:47:24.164Z,4.60
2018-12-17T07:49:53.669Z,4.43
2018-12-17T07:52:25.422Z,4.03
2018-12-17T07:54:56.699Z,4.83
2018-12-17T07:57:28.360Z,4.53
2018-12-17T07:59:59.465Z,4.30
2018-12-17T08:02:34.116Z,4.00
2018-12-17T08:05:09.690Z,3.90
2018-12-17T08:07:44.223Z,4.00
2018-12-17T08:10:17.903Z,3.60
2018-12-17T08:12:52.510Z,3.83
2018-12-17T08:15:26.301Z,3.40
2018-12-17T08:18:09.241Z,3.40
2018-12-17T08:20:40.696Z,3.33
2018-12-17T08:23:12.157Z,3.40
2018-12-17T08:25:43.820Z,3.00
2018-12-17T08:28:15.446Z,2.93
2018-12-17T08:30:47.020Z,2.80
2018-12-17T08:33:19.110Z,2.80
2018-12-17T08:35:49.968Z,2.90
2018-12-17T08:38:21.632Z,2.83
2018-12-17T08:40:53.124Z,3.00
2018-12-17T08:43:24.769Z,3.03
2018-12-17T08:45:58.465Z,3.10
2018-12-17T08:48:31.398Z,3.00
2018-12-17T08:51:02.637Z,2.80
2018-12-17T08:53:34.243Z,2.60
2018-12-17T08:56:05.720Z,2.80
2018-12-17T08:58:38.754Z,2.70
2018-12-17T09:01:12.195Z,2.63
2018-12-17T09:03:44.600Z,2.60
2018-12-17T09:06:18.480Z,2.90
2018-12-17T09:08:51.012Z,2.33
2018-12-17T09:11:25.208Z,2.47
2018-12-17T09:13:57.292Z,2.80
2018-12-17T09:16:29.018Z,2.50
2018-12-17T09:19:03.522Z,2.30
2018-12-17T09:21:35.249Z,2.80
2018-12-17T09:24:10.406Z,2.47
2018-12-17T09:26:41.934Z,2.53
2018-12-17T09:29:13.652Z,2.20
2018-12-17T09:31:45.083Z,2.50
2018-12-17T09:34:17.000Z,2.63
2018-12-17T09:36:48.598Z,2.50
2018-12-17T09:39:20.090Z,2.37
2018-12-17T09:41:51.514Z,2.73
2018-12-17T09:44:24.238Z,3.07
2018-12-17T09:46:56.351Z,2.73
2018-12-17T09:49:28.158Z,2.70
2018-12-17T09:51:59.248Z,2.53
2018-12-17T09:54:36.006Z,2.70
2018-12-17T09:57:07.738Z,2.20
2018-12-17T09:59:39.751Z,3.17
2018-12-17T10:02:11.264Z,3.10
2018-12-17T10:04:45.990Z,2.97
2018-12-17T10:07:17.460Z,3.37
2018-12-17T10:09:51.296Z,3.00
2018-12-17T10:12:22.423Z,3.40
2018-12-17T10:14:55.686Z,3.10
2018-12-17T10:17:26.894Z,2.97
2018-12-17T10:19:58.206Z,3.03
2018-12-17T10:22:29.806Z,2.53
2018-12-17T10:25:02.596Z,2.80
2018-12-17T10:27:33.645Z,2.83
2018-12-17T10:30:05.994Z,3.10
2018-12-17T10:32:36.960Z,2.40
2018-12-17T10:35:14.113Z,3.07
2018-12-17T10:37:45.615Z,2.60
2018-12-17T10:40:18.720Z,2.23
2018-12-17T10:42:52.849Z,2.30
2018-12-17T10:45:28.643Z,2.60
2018-12-17T10:48:00.146Z,3.20
2018-12-17T10:50:32.573Z,2.60
2018-12-17T10:53:04.126Z,2.90
2018-12-17T10:55:37.691Z,2.37
2018-12-17T10:58:08.971Z,2.20
2018-12-17T11:00:46.789Z,2.57
2018-12-17T11:03:30.701Z,2.70
2018-12-17T11:06:08.994Z,2.33
2018-12-17T11:08:40.503Z,3.43
2018-12-17T11:11:12.083Z,2.53
2018-12-17T11:13:43.883Z,2.80
2018-12-17T11:16:16.401Z,3.03
2018-12-17T11:18:50.113Z,3.00
2018-12-17T11:21:26.771Z,2.80
2018-12-17T11:24:00.288Z,2.53
2018-12-17T11:26:36.977Z,3.00
2018-12-17T11:29:12.120Z,2.73
2018-12-17T11:31:46.651Z,3.07
2018-12-17T11:34:17.937Z,3.63
2018-12-17T11:36:49.611Z,3.03
2018-12-17T11:39:27.371Z,3.17
2018-12-17T11:42:12.497Z,3.23
2018-12-17T11:44:51.200Z,2.80
2018-12-17T11:47:26.328Z,3.20
2018-12-17T11:49:57.881Z,2.93
2018-12-17T11:52:29.647Z,2.93
2018-12-17T11:55:00.494Z,3.40
2018-12-17T11:57:42.777Z,3.10
2018-12-17T12:00:13.739Z,2.73
2018-12-17T12:02:45.897Z,3.30
2018-12-17T12:05:17.231Z,2.90
2018-12-17T12:07:50.070Z,3.53
2018-12-17T12:10:21.299Z,3.90
2018-12-17T12:12:53.236Z,3.30
2018-12-17T12:15:25.573Z,3.20
2018-12-17T12:17:59.049Z,3.33
2018-12-17T12:20:32.853Z,3.40
2018-12-17T12:23:05.044Z,3.37
2018-12-17T12:25:37.311Z,3.30
2018-12-17T12:28:09.051Z,3.43
2018-12-17T12:30:40.393Z,3.47
2018-12-17T12:33:15.380Z,4.00
2018-12-17T12:35:50.085Z,3.70
2018-12-17T12:38:22.587Z,3.80
2018-12-17T12:40:53.614Z,4.30
2018-12-17T12:43:25.305Z,4.03
2018-12-17T12:45:59.495Z,4.77
2018-12-17T12:48:30.997Z,4.10
2018-12-17T12:51:02.464Z,4.63
2018-12-17T12:53:37.733Z,4.60
2018-12-17T12:56:09.150Z,4.77
2018-12-17T12:58:40.572Z,5.00
2018-12-17T13:01:14.455Z,5.00
2018-12-17T13:03:49.108Z,5.27
2018-12-17T13:06:22.442Z,5.23
2018-12-17T13:08:57.020Z,5.27
2018-12-17T13:11:30.629Z,4.67
2018-12-17T13:14:05.455Z,4.90
2018-12-17T13:16:38.759Z,4.90
2018-12-17T13:19:12.501Z,4.17
2018-12-17T13:21:44.040Z,4.27
2018-12-17T13:24:17.979Z,4.23
2018-12-17T13:26:49.346Z,3.47
2018-12-17T13:29:23.284Z,4.20
2018-12-17T13:31:54.949Z,3.77
2018-12-17T13:34:29.494Z,3.70
2018-12-17T13:37:01.155Z,4.10
2018-12-17T13:39:33.905Z,4.30
2018-12-17T13:42:05.867Z,3.90
2018-12-17T13:44:40.621Z,3.77
2018-12-17T13:47:11.622Z,3.60
2018-12-17T13:49:43.730Z,3.83
2018-12-17T13:52:22.601Z,3.67
2018-12-17T13:54:57.589Z,3.60
2018-12-17T13:57:28.743Z,4.30
2018-12-17T14:00:04.061Z,4.83
2018-12-17T14:02:35.497Z,4.40
2018-12-17T14:05:07.900Z,3.93
2018-12-17T14:07:41.167Z,3.53
2018-12-17T14:10:19.781Z,3.40
2018-12-17T14:12:50.729Z,3.93
2018-12-17T14:15:30.898Z,3.80
2018-12-17T14:18:04.454Z,3.63
2018-12-17T14:20:41.413Z,4.03
2018-12-17T14:23:14.893Z,4.00
2018-12-17T14:25:47.243Z,3.90
2018-12-17T14:28:20.989Z,4.13
2018-12-17T14:30:53.211Z,3.70
2018-12-17T14:33:24.586Z,3.47
2018-12-17T14:36:12.510Z,5.87
2018-12-17T14:38:43.735Z,4.00
2018-12-17T14:41:18.181Z,3.83
2018-12-17T14:43:49.459Z,3.67
2018-12-17T14:46:27.487Z,3.60
2018-12-17T14:48:58.903Z,3.67
2018-12-17T14:51:31.209Z,3.50
2018-12-17T14:54:02.810Z,3.67
2018-12-17T14:56:35.239Z,3.73
2018-12-17T14:59:06.535Z,4.03
2018-12-17T15:01:39.264Z,3.33
2018-12-17T15:04:10.813Z,3.13
2018-12-17T15:06:43.759Z,3.73
2018-12-17T15:09:15.737Z,3.93
2018-12-17T15:11:47.100Z,3.77
2018-12-17T15:14:20.264Z,3.80
2018-12-17T15:16:52.379Z,3.97
2018-12-17T15:19:26.059Z,3.33
2018-12-17T15:21:59.200Z,3.77
2018-12-17T15:27:02.635Z,4.30
2018-12-17T15:29:35.928Z,3.97
2018-12-17T15:32:11.223Z,4.33
2018-12-17T15:34:42.189Z,4.33
2018-12-17T15:37:16.121Z,4.47
2018-12-17T15:39:55.241Z,4.90
2018-12-17T15:42:40.993Z,4.67
2018-12-17T15:45:12.599Z,4.20
2018-12-17T15:47:52.397Z,4.80
2018-12-17T15:50:26.272Z,5.53
2018-12-17T15:52:58.912Z,4.67
2018-12-17T15:55:31.467Z,5.43
2018-12-17T15:58:03.614Z,6.30
2018-12-17T16:00:35.107Z,5.80
2018-12-17T16:03:07.915Z,5.73
2018-12-17T16:05:45.742Z,6.93
2018-12-17T16:08:17.749Z,8.03
2018-12-17T16:10:49.212Z,7.93
2018-12-17T16:13:21.819Z,7.43
2018-12-17T16:15:53.545Z,7.53
2018-12-17T16:18:25.752Z,6.73
2018-12-17T16:20:58.940Z,6.67
2018-12-17T16:23:31.338Z,7.43
2018-12-17T16:26:10.331Z,7.60
2018-12-17T16:28:42.344Z,7.70
2018-12-17T16:31:22.510Z,9.03
2018-12-17T16:34:03.350Z,7.40
2018-12-17T16:36:37.118Z,7.90
2018-12-17T16:39:15.764Z,7.13
2018-12-17T16:41:49.730Z,8.63
2018-12-17T16:44:22.836Z,7.43
2018-12-17T16:46:56.656Z,9.00
2018-12-17T16:49:35.708Z,10.73
2018-12-17T16:52:13.000Z,9.73
2018-12-17T16:54:53.367Z,8.93
2018-12-17T16:57:28.808Z,8.67
2018-12-17T17:00:09.398Z,9.23
2018-12-17T17:02:47.360Z,8.80
2018-12-17T17:05:19.954Z,8.43
2018-12-17T17:08:00.867Z,8.50
2018-12-17T17:10:35.350Z,9.27
2018-12-17T17:13:12.830Z,8.37
2018-12-17T17:15:58.172Z,8.70
2018-12-17T17:18:29.306Z,8.70
2018-12-17T17:21:03.572Z,8.47
2018-12-17T17:23:34.778Z,8.10
2018-12-17T17:26:06.461Z,8.47
2018-12-17T17:28:38.436Z,8.53
2018-12-17T17:31:14.776Z,8.80
2018-12-17T17:33:50.659Z,8.90
2018-12-17T17:36:29.619Z,9.40
2018-12-17T17:39:01.150Z,9.53
2018-12-17T17:41:33.980Z,9.43
2018-12-17T17:44:08.892Z,9.87
2018-12-17T17:46:43.130Z,11.43
2018-12-17T17:49:19.217Z,11.80
2018-12-17T17:51:59.468Z,12.57
2018-12-17T17:54:30.840Z,11.70
2018-12-17T17:57:06.314Z,10.97
2018-12-17T17:59:43.994Z,10.80
2018-12-17T18:02:21.708Z,10.33
2018-12-17T18:04:56.494Z,11.67
2018-12-17T18:07:32.053Z,13.93
2018-12-17T18:10:08.586Z,14.30
2018-12-17T18:12:43.372Z,13.93
2018-12-17T18:15:19.474Z,15.60
2018-12-17T18:17:51.820Z,17.33
2018-12-17T18:20:25.848Z,15.07
2018-12-17T18:23:04.371Z,15.07
2018-12-17T18:25:41.755Z,14.90
2018-12-17T18:28:22.647Z,13.63
2018-12-17T18:31:00.388Z,16.93
2018-12-17T18:33:38.419Z,16.23
2018-12-17T18:36:10.022Z,16.70
2018-12-17T18:38:51.025Z,17.83
2018-12-17T18:41:32.898Z,19.27
2018-12-17T18:44:13.628Z,17.63
2018-12-17T18:46:47.540Z,17.37
2018-12-17T18:49:26.111Z,16.73
2018-12-17T18:52:06.380Z,15.03
2018-12-17T18:54:41.046Z,15.60
2018-12-17T18:57:13.091Z,14.43
2018-12-17T18:59:47.054Z,15.50
2018-12-17T19:02:18.204Z,14.23
2018-12-17T19:04:49.703Z,14.97
2018-12-17T19:07:25.647Z,15.73
2018-12-17T19:09:58.171Z,14.57
2018-12-17T19:12:33.912Z,15.37
2018-12-17T19:15:07.043Z,15.17
2018-12-17T19:17:38.096Z,15.93
2018-12-17T19:20:10.931Z,16.33
2018-12-17T19:22:50.762Z,15.77
2018-12-17T19:25:29.401Z,15.00
2018-12-17T19:28:06.516Z,16.00
2018-12-17T19:30:38.945Z,15.23
2018-12-17T19:33:13.954Z,15.97
2018-12-17T19:35:46.431Z,14.27
2018-12-17T19:38:24.046Z,14.67
2018-12-17T19:41:02.356Z,15.23
2018-12-17T19:43:33.770Z,16.37
2018-12-17T19:46:12.692Z,13.30
2018-12-17T19:48:44.416Z,13.67
2018-12-17T19:51:16.272Z,14.13
2018-12-17T19:53:47.862Z,14.43
2018-12-17T19:56:26.095Z,14.87
2018-12-17T19:58:57.954Z,14.40
2018-12-17T20:01:32.678Z,13.27
2018-12-17T20:04:12.456Z,13.60
2018-12-17T20:06:46.931Z,12.10
2018-12-17T20:09:27.356Z,12.37
2018-12-17T20:11:59.362Z,13.77
2018-12-17T20:14:30.554Z,12.17
2018-12-17T20:17:02.883Z,12.33
2018-12-17T20:19:36.320Z,11.27
2018-12-17T20:22:11.590Z,11.93
2018-12-17T20:24:46.980Z,12.13
2018-12-17T20:27:21.990Z,12.50
2018-12-17T20:29:56.469Z,12.30
2018-12-17T20:32:34.961Z,12.43
2018-12-17T20:35:11.090Z,11.97
2018-12-17T20:37:44.492Z,11.23
2018-12-17T20:40:18.575Z,12.10
2018-12-17T20:42:50.130Z,11.77
2018-12-17T20:45:30.148Z,10.10
2018-12-17T20:48:08.322Z,11.23
2018-12-17T20:50:44.512Z,10.43
2018-12-17T20:53:17.562Z,10.57
2018-12-17T20:55:50.330Z,11.60
2018-12-17T20:58:28.668Z,10.80
2018-12-17T21:01:04.605Z,10.70
2018-12-17T21:03:40.699Z,9.80
2018-12-17T21:06:15.013Z,10.93
2018-12-17T21:08:53.117Z,11.10
2018-12-17T21:11:29.574Z,10.47
2018-12-17T21:14:10.800Z,10.20
2018-12-17T21:16:48.546Z,10.50
2018-12-17T21:19:23.302Z,11.00
2018-12-17T21:21:59.549Z,11.00
2018-12-17T21:24:32.264Z,11.37
2018-12-17T21:27:03.957Z,11.47
2018-12-17T21:29:41.740Z,12.07
2018-12-17T21:32:21.540Z,11.67
2018-12-17T21:35:00.917Z,12.07
2018-12-17T21:37:33.697Z,12.27
2018-12-17T21:40:09.335Z,12.37
2018-12-17T21:42:41.049Z,13.77
2018-12-17T21:45:21.607Z,13.37
2018-12-17T21:47:55.399Z,14.87
2018-12-17T21:50:37.044Z,14.07
2018-12-17T21:53:18.203Z,14.40
2018-12-17T21:55:58.847Z,14.70
2018-12-17T21:58:30.094Z,15.13
2018-12-17T22:01:04.711Z,14.97
2018-12-17T22:03:36.547Z,16.07
2018-12-17T22:06:14.690Z,15.57
2018-12-17T22:08:52.381Z,17.47
2018-12-17T22:11:31.914Z,16.47
2018-12-17T22:14:07.746Z,18.37
2018-12-17T22:16:43.549Z,17.73
2018-12-17T22:19:16.130Z,18.10
2018-12-17T22:21:48.704Z,18.53
2018-12-17T22:24:22.292Z,17.83
2018-12-17T22:27:03.257Z,18.60
2018-12-17T22:29:39.313Z,16.63
2018-12-17T22:32:15.849Z,17.47
2018-12-17T22:34:48.064Z,16.33
2018-12-17T22:37:26.442Z,16.53
2018-12-17T22:39:58.211Z,17.77
2018-12-17T22:42:30.961Z,17.87
2018-12-17T22:45:02.181Z,17.60
2018-12-17T22:47:39.035Z,18.17
2018-12-17T22:50:14.246Z,18.00
2018-12-17T22:52:49.230Z,17.47
2018-12-17T22:55:25.358Z,16.73
2018-12-17T22:58:01.984Z,16.53
2018-12-17T23:00:34.606Z,17.93
2018-12-17T23:03:09.025Z,16.90
2018-12-17T23:05:49.907Z,16.40
2018-12-17T23:08:27.983Z,17.87
2018-12-17T23:11:18.190Z,16.97
2018-12-17T23:14:01.143Z,16.40
2018-12-17T23:16:42.899Z,16.53
2018-12-17T23:19:17.911Z,15.97
2018-12-17T23:21:58.432Z,15.13
2018-12-17T23:24:37.556Z,13.83
2018-12-17T23:27:11.262Z,14.07
2018-12-17T23:29:51.568Z,15.03
2018-12-17T23:32:33.936Z,14.67
2018-12-17T23:35:12.708Z,14.30
2018-12-17T23:37:46.882Z,12.93
2018-12-17T23:40:21.146Z,13.20
2018-12-17T23:42:53.060Z,13.40
2018-12-17T23:45:29.536Z,13.30
2018-12-17T23:48:07.162Z,13.43
2018-12-17T23:50:42.001Z,12.63
2018-12-17T23:53:20.342Z,11.77
2018-12-17T23:55:54.813Z,12.63
2018-12-17T23:58:25.822Z,12.63
